sensor_id;sensor_type;location;lat;lon;timestamp;pressure;altitude;pressure_sealevel;temperature;humidity
8920;BME280;4495;42.644;23.274;2024-03-08T00:00:08;93015.38;;;3.66;85.87
8920;BME280;4495;42.644;23.274;2024-03-08T00:02:36;93010.16;;;3.71;85.11
8920;BME280;4495;42.644;23.274;2024-03-08T00:05:05;93017.13;;;3.71;86.06
8920;BME280;4495;42.644;23.274;2024-03-08T00:07:31;93014.63;;;3.66;84.86
8920;BME280;4495;42.644;23.274;2024-03-08T00:09:57;93009.09;;;3.78;84.74
8920;BME280;4495;42.644;23.274;2024-03-08T00:12:23;93017.81;;;3.77;85.66
8920;BME280;4495;42.644;23.274;2024-03-08T00:14:51;93006.06;;;3.70;85.37
8920;BME280;4495;42.644;23.274;2024-03-08T00:17:16;93008.53;;;3.57;85.07
8920;BME280;4495;42.644;23.274;2024-03-08T00:19:41;93013.19;;;3.54;84.75
8920;BME280;4495;42.644;23.274;2024-03-08T00:22:07;93011.97;;;3.47;85.84
8920;BME280;4495;42.644;23.274;2024-03-08T00:24:33;93007.31;;;3.49;84.81
8920;BME280;4495;42.644;23.274;2024-03-08T00:26:58;93006.31;;;3.50;84.90
8920;BME280;4495;42.644;23.274;2024-03-08T00:29:24;93003.50;;;3.46;85.66
8920;BME280;4495;42.644;23.274;2024-03-08T00:31:50;92998.09;;;3.48;84.98
8920;BME280;4495;42.644;23.274;2024-03-08T00:34:15;92992.66;;;3.49;84.87
8920;BME280;4495;42.644;23.274;2024-03-08T00:36:41;93002.19;;;3.49;86.13
8920;BME280;4495;42.644;23.274;2024-03-08T00:39:06;92989.06;;;3.50;85.45
8920;BME280;4495;42.644;23.274;2024-03-08T00:41:32;92991.78;;;3.35;86.53
8920;BME280;4495;42.644;23.274;2024-03-08T00:43:58;92991.72;;;3.40;86.61
8920;BME280;4495;42.644;23.274;2024-03-08T00:46:23;93000.09;;;3.51;85.67
8920;BME280;4495;42.644;23.274;2024-03-08T00:48:49;92991.91;;;3.49;86.04
8920;BME280;4495;42.644;23.274;2024-03-08T00:51:14;92988.34;;;3.45;85.38
8920;BME280;4495;42.644;23.274;2024-03-08T00:53:41;92987.91;;;3.38;85.42
8920;BME280;4495;42.644;23.274;2024-03-08T00:56:07;92987.19;;;3.32;85.17
8920;BME280;4495;42.644;23.274;2024-03-08T00:58:36;92985.81;;;3.40;86.70
8920;BME280;4495;42.644;23.274;2024-03-08T01:01:02;92981.88;;;3.23;85.37
8920;BME280;4495;42.644;23.274;2024-03-08T01:03:27;92978.66;;;3.37;84.83
8920;BME280;4495;42.644;23.274;2024-03-08T01:05:53;92974.06;;;3.33;84.46
8920;BME280;4495;42.644;23.274;2024-03-08T01:08:19;92976.25;;;3.21;84.40
8920;BME280;4495;42.644;23.274;2024-03-08T01:10:44;92971.38;;;3.20;84.30
8920;BME280;4495;42.644;23.274;2024-03-08T01:13:10;92974.94;;;3.24;84.46
8920;BME280;4495;42.644;23.274;2024-03-08T01:15:35;92971.13;;;3.16;85.71
8920;BME280;4495;42.644;23.274;2024-03-08T01:18:01;92970.78;;;3.28;85.61
8920;BME280;4495;42.644;23.274;2024-03-08T01:20:26;92975.19;;;3.22;85.69
8920;BME280;4495;42.644;23.274;2024-03-08T01:22:52;92964.69;;;2.95;84.23
8920;BME280;4495;42.644;23.274;2024-03-08T01:25:17;92962.06;;;3.00;84.09
8920;BME280;4495;42.644;23.274;2024-03-08T01:27:43;92967.88;;;2.81;86.63
8920;BME280;4495;42.644;23.274;2024-03-08T01:30:08;92965.47;;;2.61;85.80
8920;BME280;4495;42.644;23.274;2024-03-08T01:32:37;92964.03;;;2.79;86.03
8920;BME280;4495;42.644;23.274;2024-03-08T01:35:03;92966.66;;;2.74;86.94
8920;BME280;4495;42.644;23.274;2024-03-08T01:37:29;92966.53;;;2.55;86.58
8920;BME280;4495;42.644;23.274;2024-03-08T01:39:54;92964.56;;;2.41;87.49
8920;BME280;4495;42.644;23.274;2024-03-08T01:42:20;92965.13;;;2.38;87.51
8920;BME280;4495;42.644;23.274;2024-03-08T01:44:45;92970.25;;;2.33;88.51
8920;BME280;4495;42.644;23.274;2024-03-08T01:47:11;92970.66;;;2.56;87.26
8920;BME280;4495;42.644;23.274;2024-03-08T01:49:37;92965.00;;;2.54;86.48
8920;BME280;4495;42.644;23.274;2024-03-08T01:52:03;92970.34;;;2.23;86.77
8920;BME280;4495;42.644;23.274;2024-03-08T01:54:29;92970.25;;;2.33;88.54
8920;BME280;4495;42.644;23.274;2024-03-08T01:56:56;92963.34;;;2.34;87.92
8920;BME280;4495;42.644;23.274;2024-03-08T01:59:24;92965.22;;;2.23;87.23
8920;BME280;4495;42.644;23.274;2024-03-08T02:01:50;92954.09;;;2.33;87.99
8920;BME280;4495;42.644;23.274;2024-03-08T02:04:16;92957.97;;;2.30;87.34
8920;BME280;4495;42.644;23.274;2024-03-08T02:06:42;92952.44;;;2.52;86.97
8920;BME280;4495;42.644;23.274;2024-03-08T02:09:07;92951.63;;;2.57;86.89
8920;BME280;4495;42.644;23.274;2024-03-08T02:11:35;92946.44;;;2.62;87.52
8920;BME280;4495;42.644;23.274;2024-03-08T02:14:01;92947.72;;;2.64;86.67
8920;BME280;4495;42.644;23.274;2024-03-08T02:16:27;92953.34;;;2.66;85.46
8920;BME280;4495;42.644;23.274;2024-03-08T02:18:53;92950.75;;;2.72;87.01
8920;BME280;4495;42.644;23.274;2024-03-08T02:21:18;92951.91;;;2.84;86.30
8920;BME280;4495;42.644;23.274;2024-03-08T02:23:44;92957.97;;;2.99;85.29
8920;BME280;4495;42.644;23.274;2024-03-08T02:26:10;92957.16;;;3.03;84.91
8920;BME280;4495;42.644;23.274;2024-03-08T02:28:36;92954.53;;;3.08;85.24
8920;BME280;4495;42.644;23.274;2024-03-08T02:31:01;92948.63;;;3.08;84.39
8920;BME280;4495;42.644;23.274;2024-03-08T02:33:27;92951.69;;;3.10;84.20
8920;BME280;4495;42.644;23.274;2024-03-08T02:35:54;92952.31;;;2.97;84.78
8920;BME280;4495;42.644;23.274;2024-03-08T02:38:21;92967.41;;;2.74;85.16
8920;BME280;4495;42.644;23.274;2024-03-08T02:40:50;92969.81;;;2.95;84.34
8920;BME280;4495;42.644;23.274;2024-03-08T02:43:17;92954.03;;;3.06;84.09
8920;BME280;4495;42.644;23.274;2024-03-08T02:45:44;92954.97;;;3.16;83.73
8920;BME280;4495;42.644;23.274;2024-03-08T02:48:11;92959.56;;;3.19;83.59
8920;BME280;4495;42.644;23.274;2024-03-08T02:50:37;92961.81;;;3.25;83.94
8920;BME280;4495;42.644;23.274;2024-03-08T02:53:04;92958.38;;;3.35;84.32
8920;BME280;4495;42.644;23.274;2024-03-08T02:55:30;92966.84;;;3.36;84.09
8920;BME280;4495;42.644;23.274;2024-03-08T02:57:56;92962.63;;;3.45;83.09
8920;BME280;4495;42.644;23.274;2024-03-08T03:00:22;92965.97;;;3.45;82.97
8920;BME280;4495;42.644;23.274;2024-03-08T03:02:48;92971.22;;;3.35;83.44
8920;BME280;4495;42.644;23.274;2024-03-08T03:05:17;92963.00;;;3.33;83.73
8920;BME280;4495;42.644;23.274;2024-03-08T03:07:43;92970.63;;;3.19;83.32
8920;BME280;4495;42.644;23.274;2024-03-08T03:10:08;92967.53;;;3.17;84.09
8920;BME280;4495;42.644;23.274;2024-03-08T03:12:33;92972.78;;;3.07;83.87
8920;BME280;4495;42.644;23.274;2024-03-08T03:14:59;92969.56;;;2.91;85.02
8920;BME280;4495;42.644;23.274;2024-03-08T03:17:25;92983.63;;;2.69;85.17
8920;BME280;4495;42.644;23.274;2024-03-08T03:19:51;92982.19;;;2.58;83.40
8920;BME280;4495;42.644;23.274;2024-03-08T03:22:17;92975.81;;;2.50;83.26
8920;BME280;4495;42.644;23.274;2024-03-08T03:24:44;92980.53;;;2.33;84.70
8920;BME280;4495;42.644;23.274;2024-03-08T03:27:09;92984.19;;;2.27;84.31
8920;BME280;4495;42.644;23.274;2024-03-08T03:29:41;92991.50;;;2.04;83.12
8920;BME280;4495;42.644;23.274;2024-03-08T03:32:13;92984.28;;;2.12;83.72
8920;BME280;4495;42.644;23.274;2024-03-08T03:34:41;92987.34;;;2.14;83.86
8920;BME280;4495;42.644;23.274;2024-03-08T03:37:09;92985.88;;;1.97;82.64
8920;BME280;4495;42.644;23.274;2024-03-08T03:39:38;93004.09;;;1.96;81.74
8920;BME280;4495;42.644;23.274;2024-03-08T03:42:19;93001.31;;;1.87;82.00
8920;BME280;4495;42.644;23.274;2024-03-08T03:44:45;93003.34;;;1.95;83.08
8920;BME280;4495;42.644;23.274;2024-03-08T03:47:11;93004.69;;;1.82;84.74
8920;BME280;4495;42.644;23.274;2024-03-08T03:49:36;93002.34;;;1.86;83.53
8920;BME280;4495;42.644;23.274;2024-03-08T03:52:02;93005.41;;;1.93;82.74
8920;BME280;4495;42.644;23.274;2024-03-08T03:54:29;93007.47;;;1.91;84.47
8920;BME280;4495;42.644;23.274;2024-03-08T03:56:56;93011.06;;;1.85;84.70
8920;BME280;4495;42.644;23.274;2024-03-08T03:59:21;93006.44;;;1.87;86.18
8920;BME280;4495;42.644;23.274;2024-03-08T04:01:47;93005.50;;;1.67;86.96
8920;BME280;4495;42.644;23.274;2024-03-08T04:04:12;93009.28;;;1.80;87.48
8920;BME280;4495;42.644;23.274;2024-03-08T04:06:38;93009.03;;;1.82;85.83
8920;BME280;4495;42.644;23.274;2024-03-08T04:09:03;93017.22;;;1.89;86.82
8920;BME280;4495;42.644;23.274;2024-03-08T04:11:30;93019.81;;;1.84;86.07
8920;BME280;4495;42.644;23.274;2024-03-08T04:13:55;93014.69;;;1.79;85.20
8920;BME280;4495;42.644;23.274;2024-03-08T04:16:21;93016.50;;;1.68;85.78
8920;BME280;4495;42.644;23.274;2024-03-08T04:18:46;93024.13;;;1.94;87.23
8920;BME280;4495;42.644;23.274;2024-03-08T04:21:13;93018.91;;;2.09;87.00
8920;BME280;4495;42.644;23.274;2024-03-08T04:23:38;93022.78;;;2.06;85.46
8920;BME280;4495;42.644;23.274;2024-03-08T04:26:04;93024.78;;;2.15;86.61
8920;BME280;4495;42.644;23.274;2024-03-08T04:28:31;93025.25;;;2.22;85.50
8920;BME280;4495;42.644;23.274;2024-03-08T04:30:56;93024.53;;;2.16;84.44
8920;BME280;4495;42.644;23.274;2024-03-08T04:33:22;93032.59;;;1.89;86.01
8920;BME280;4495;42.644;23.274;2024-03-08T04:35:48;93036.13;;;2.03;84.99
8920;BME280;4495;42.644;23.274;2024-03-08T04:38:14;93040.75;;;2.01;84.88
8920;BME280;4495;42.644;23.274;2024-03-08T04:40:40;93041.19;;;2.19;84.84
8920;BME280;4495;42.644;23.274;2024-03-08T04:43:06;93045.03;;;2.21;84.62
8920;BME280;4495;42.644;23.274;2024-03-08T04:45:33;93038.03;;;2.32;83.78
8920;BME280;4495;42.644;23.274;2024-03-08T04:47:59;93040.56;;;2.42;83.89
8920;BME280;4495;42.644;23.274;2024-03-08T04:50:24;93047.22;;;2.43;84.95
8920;BME280;4495;42.644;23.274;2024-03-08T04:52:49;93037.00;;;2.38;84.71
8920;BME280;4495;42.644;23.274;2024-03-08T04:55:15;93046.28;;;2.29;84.65
8920;BME280;4495;42.644;23.274;2024-03-08T04:57:40;93043.94;;;2.33;82.52
8920;BME280;4495;42.644;23.274;2024-03-08T05:00:07;93052.22;;;2.24;83.75
8920;BME280;4495;42.644;23.274;2024-03-08T05:02:37;93054.72;;;2.35;83.45
8920;BME280;4495;42.644;23.274;2024-03-08T05:05:05;93052.38;;;2.38;83.36
8920;BME280;4495;42.644;23.274;2024-03-08T05:07:31;93061.41;;;2.31;84.35
8920;BME280;4495;42.644;23.274;2024-03-08T05:09:58;93054.50;;;2.31;83.70
8920;BME280;4495;42.644;23.274;2024-03-08T05:12:23;93063.88;;;2.46;82.53
8920;BME280;4495;42.644;23.274;2024-03-08T05:14:48;93057.06;;;2.31;80.65
8920;BME280;4495;42.644;23.274;2024-03-08T05:17:15;93052.78;;;2.06;80.74
8920;BME280;4495;42.644;23.274;2024-03-08T05:19:41;93064.78;;;2.21;81.70
8920;BME280;4495;42.644;23.274;2024-03-08T05:22:07;93061.66;;;2.34;81.71
8920;BME280;4495;42.644;23.274;2024-03-08T05:24:33;93064.88;;;2.00;81.79
8920;BME280;4495;42.644;23.274;2024-03-08T05:26:59;93075.88;;;2.11;82.52
8920;BME280;4495;42.644;23.274;2024-03-08T05:29:25;93075.56;;;2.23;82.24
8920;BME280;4495;42.644;23.274;2024-03-08T05:31:51;93085.75;;;2.38;82.75
8920;BME280;4495;42.644;23.274;2024-03-08T05:34:18;93084.97;;;2.43;82.49
8920;BME280;4495;42.644;23.274;2024-03-08T05:36:45;93087.91;;;2.16;82.97
8920;BME280;4495;42.644;23.274;2024-03-08T05:39:14;93087.44;;;2.03;84.54
8920;BME280;4495;42.644;23.274;2024-03-08T05:41:39;93094.09;;;2.10;83.54
8920;BME280;4495;42.644;23.274;2024-03-08T05:44:05;93094.09;;;2.04;82.90
8920;BME280;4495;42.644;23.274;2024-03-08T05:46:31;93101.75;;;2.15;83.47
8920;BME280;4495;42.644;23.274;2024-03-08T05:48:56;93102.53;;;2.10;82.78
8920;BME280;4495;42.644;23.274;2024-03-08T05:51:24;93101.00;;;2.04;84.01
8920;BME280;4495;42.644;23.274;2024-03-08T05:53:51;93105.41;;;1.98;83.38
8920;BME280;4495;42.644;23.274;2024-03-08T05:56:18;93105.91;;;2.00;84.37
8920;BME280;4495;42.644;23.274;2024-03-08T05:58:44;93115.16;;;2.06;83.88
8920;BME280;4495;42.644;23.274;2024-03-08T06:01:09;93118.13;;;2.24;83.30
8920;BME280;4495;42.644;23.274;2024-03-08T06:03:38;93112.19;;;2.39;84.53
8920;BME280;4495;42.644;23.274;2024-03-08T06:06:14;93122.06;;;2.11;82.81
8920;BME280;4495;42.644;23.274;2024-03-08T06:08:40;93129.47;;;2.18;83.08
8920;BME280;4495;42.644;23.274;2024-03-08T06:11:08;93134.38;;;2.04;84.12
8920;BME280;4495;42.644;23.274;2024-03-08T06:13:33;93133.38;;;1.90;85.31
8920;BME280;4495;42.644;23.274;2024-03-08T06:15:59;93126.22;;;1.86;84.98
8920;BME280;4495;42.644;23.274;2024-03-08T06:18:26;93132.06;;;1.97;85.02
8920;BME280;4495;42.644;23.274;2024-03-08T06:20:51;93125.16;;;2.03;84.56
8920;BME280;4495;42.644;23.274;2024-03-08T06:23:17;93131.59;;;1.85;84.31
8920;BME280;4495;42.644;23.274;2024-03-08T06:25:44;93137.72;;;2.04;85.24
8920;BME280;4495;42.644;23.274;2024-03-08T06:28:09;93134.31;;;2.19;84.59
8920;BME280;4495;42.644;23.274;2024-03-08T06:30:35;93129.44;;;2.23;83.27
8920;BME280;4495;42.644;23.274;2024-03-08T06:33:01;93132.31;;;2.11;85.38
8920;BME280;4495;42.644;23.274;2024-03-08T06:35:26;93132.28;;;2.26;84.02
8920;BME280;4495;42.644;23.274;2024-03-08T06:37:51;93140.22;;;2.25;84.03
8920;BME280;4495;42.644;23.274;2024-03-08T06:40:17;93145.28;;;2.40;83.38
8920;BME280;4495;42.644;23.274;2024-03-08T06:42:42;93143.19;;;2.53;83.48
8920;BME280;4495;42.644;23.274;2024-03-08T06:45:09;93142.97;;;2.44;84.16
8920;BME280;4495;42.644;23.274;2024-03-08T06:47:35;93151.22;;;2.31;85.84
8920;BME280;4495;42.644;23.274;2024-03-08T06:50:00;93147.09;;;2.35;85.33
8920;BME280;4495;42.644;23.274;2024-03-08T06:52:26;93150.44;;;2.40;84.06
8920;BME280;4495;42.644;23.274;2024-03-08T06:54:51;93146.91;;;2.11;85.02
8920;BME280;4495;42.644;23.274;2024-03-08T06:57:18;93145.66;;;2.13;85.53
8920;BME280;4495;42.644;23.274;2024-03-08T06:59:45;93141.47;;;2.33;84.42
8920;BME280;4495;42.644;23.274;2024-03-08T07:02:11;93151.66;;;2.48;83.63
8920;BME280;4495;42.644;23.274;2024-03-08T07:04:36;93152.22;;;2.45;82.79
8920;BME280;4495;42.644;23.274;2024-03-08T07:07:05;93153.50;;;2.42;82.65
8920;BME280;4495;42.644;23.274;2024-03-08T07:09:35;93158.47;;;2.73;85.00
8920;BME280;4495;42.644;23.274;2024-03-08T07:12:01;93154.47;;;2.57;84.66
8920;BME280;4495;42.644;23.274;2024-03-08T07:14:27;93159.63;;;2.46;84.65
8920;BME280;4495;42.644;23.274;2024-03-08T07:16:52;93150.88;;;2.53;84.07
8920;BME280;4495;42.644;23.274;2024-03-08T07:19:18;93157.34;;;2.40;84.11
8920;BME280;4495;42.644;23.274;2024-03-08T07:21:44;93165.50;;;2.62;84.30
8920;BME280;4495;42.644;23.274;2024-03-08T07:24:10;93161.63;;;2.65;82.90
8920;BME280;4495;42.644;23.274;2024-03-08T07:26:42;93157.19;;;2.81;83.88
8920;BME280;4495;42.644;23.274;2024-03-08T07:29:07;93167.66;;;2.89;82.42
8920;BME280;4495;42.644;23.274;2024-03-08T07:31:33;93170.25;;;2.84;81.75
8920;BME280;4495;42.644;23.274;2024-03-08T07:34:17;93170.06;;;2.70;82.38
8920;BME280;4495;42.644;23.274;2024-03-08T07:36:43;93168.94;;;2.87;81.86
8920;BME280;4495;42.644;23.274;2024-03-08T07:39:08;93170.75;;;2.91;80.62
8920;BME280;4495;42.644;23.274;2024-03-08T07:41:38;93182.78;;;2.96;80.84
8920;BME280;4495;42.644;23.274;2024-03-08T07:44:08;93179.38;;;3.06;79.41
8920;BME280;4495;42.644;23.274;2024-03-08T07:46:34;93177.81;;;3.10;80.27
8920;BME280;4495;42.644;23.274;2024-03-08T07:49:00;93178.31;;;3.12;79.57
8920;BME280;4495;42.644;23.274;2024-03-08T07:51:25;93187.00;;;3.21;79.26
8920;BME280;4495;42.644;23.274;2024-03-08T07:53:51;93174.72;;;3.47;80.08
8920;BME280;4495;42.644;23.274;2024-03-08T07:56:16;93183.69;;;3.55;77.90
8920;BME280;4495;42.644;23.274;2024-03-08T07:58:44;93176.97;;;3.54;76.37
8920;BME280;4495;42.644;23.274;2024-03-08T08:01:18;93177.19;;;3.28;77.90
8920;BME280;4495;42.644;23.274;2024-03-08T08:03:44;93180.41;;;3.44;76.77
8920;BME280;4495;42.644;23.274;2024-03-08T08:06:10;93187.00;;;3.56;76.42
8920;BME280;4495;42.644;23.274;2024-03-08T08:08:41;93182.94;;;3.84;76.01
8920;BME280;4495;42.644;23.274;2024-03-08T08:11:07;93180.94;;;4.05;73.75
8920;BME280;4495;42.644;23.274;2024-03-08T08:13:34;93179.13;;;4.05;73.38
8920;BME280;4495;42.644;23.274;2024-03-08T08:15:59;93174.53;;;4.26;74.36
8920;BME280;4495;42.644;23.274;2024-03-08T08:18:25;93168.94;;;4.19;74.41
8920;BME280;4495;42.644;23.274;2024-03-08T08:20:51;93168.25;;;4.37;73.80
8920;BME280;4495;42.644;23.274;2024-03-08T08:23:17;93184.63;;;4.23;74.08
8920;BME280;4495;42.644;23.274;2024-03-08T08:25:45;93178.00;;;4.59;72.67
8920;BME280;4495;42.644;23.274;2024-03-08T08:28:10;93175.50;;;4.97;72.40
8920;BME280;4495;42.644;23.274;2024-03-08T08:30:38;93174.63;;;4.64;71.42
8920;BME280;4495;42.644;23.274;2024-03-08T08:33:03;93175.41;;;4.65;71.63
8920;BME280;4495;42.644;23.274;2024-03-08T08:35:31;93179.88;;;4.78;71.84
8920;BME280;4495;42.644;23.274;2024-03-08T08:37:57;93183.88;;;5.27;70.52
8920;BME280;4495;42.644;23.274;2024-03-08T08:40:24;93173.03;;;5.63;70.07
8920;BME280;4495;42.644;23.274;2024-03-08T08:42:51;93170.13;;;5.65;69.40
8920;BME280;4495;42.644;23.274;2024-03-08T08:45:18;93168.75;;;5.53;69.35
8920;BME280;4495;42.644;23.274;2024-03-08T08:47:46;93172.00;;;5.92;69.35
8920;BME280;4495;42.644;23.274;2024-03-08T08:50:12;93169.44;;;5.26;69.25
8920;BME280;4495;42.644;23.274;2024-03-08T08:52:38;93168.75;;;5.53;70.38
8920;BME280;4495;42.644;23.274;2024-03-08T08:55:04;93164.84;;;6.21;68.97
8920;BME280;4495;42.644;23.274;2024-03-08T08:57:32;93166.56;;;6.40;67.26
8920;BME280;4495;42.644;23.274;2024-03-08T08:59:59;93171.41;;;6.83;65.89
8920;BME280;4495;42.644;23.274;2024-03-08T09:02:25;93164.22;;;6.94;64.87
8920;BME280;4495;42.644;23.274;2024-03-08T09:04:51;93171.16;;;6.71;66.17
8920;BME280;4495;42.644;23.274;2024-03-08T09:07:16;93172.66;;;6.85;65.23
8920;BME280;4495;42.644;23.274;2024-03-08T09:09:44;93166.66;;;7.13;62.92
8920;BME280;4495;42.644;23.274;2024-03-08T09:12:10;93169.09;;;6.95;64.05
8920;BME280;4495;42.644;23.274;2024-03-08T09:14:41;93164.38;;;7.11;63.17
8920;BME280;4495;42.644;23.274;2024-03-08T09:17:07;93169.28;;;6.99;62.95
8920;BME280;4495;42.644;23.274;2024-03-08T09:19:35;93168.44;;;7.26;63.02
8920;BME280;4495;42.644;23.274;2024-03-08T09:22:02;93169.16;;;7.63;63.46
8920;BME280;4495;42.644;23.274;2024-03-08T09:24:29;93162.66;;;6.93;62.21
8920;BME280;4495;42.644;23.274;2024-03-08T09:26:54;93169.16;;;7.04;62.35
8920;BME280;4495;42.644;23.274;2024-03-08T09:29:20;93169.22;;;7.13;62.91
8920;BME280;4495;42.644;23.274;2024-03-08T09:31:45;93170.53;;;7.38;60.99
8920;BME280;4495;42.644;23.274;2024-03-08T09:34:11;93172.00;;;7.16;60.36
8920;BME280;4495;42.644;23.274;2024-03-08T09:36:36;93166.31;;;6.92;60.91
8920;BME280;4495;42.644;23.274;2024-03-08T09:39:02;93165.69;;;7.22;60.96
8920;BME280;4495;42.644;23.274;2024-03-08T09:41:28;93163.84;;;7.23;58.36
8920;BME280;4495;42.644;23.274;2024-03-08T09:43:56;93169.09;;;7.54;59.45
8920;BME280;4495;42.644;23.274;2024-03-08T09:46:24;93178.22;;;7.52;59.21
8920;BME280;4495;42.644;23.274;2024-03-08T09:48:50;93171.47;;;7.05;58.62
8920;BME280;4495;42.644;23.274;2024-03-08T09:51:16;93173.41;;;7.36;60.36
8920;BME280;4495;42.644;23.274;2024-03-08T09:53:41;93171.97;;;7.30;59.58
8920;BME280;4495;42.644;23.274;2024-03-08T09:56:11;93170.81;;;7.36;59.90
8920;BME280;4495;42.644;23.274;2024-03-08T09:58:37;93168.59;;;7.07;58.80
8920;BME280;4495;42.644;23.274;2024-03-08T10:01:17;93174.91;;;7.37;59.26
8920;BME280;4495;42.644;23.274;2024-03-08T10:03:43;93167.75;;;7.34;57.76
8920;BME280;4495;42.644;23.274;2024-03-08T10:06:09;93174.41;;;7.13;56.58
8920;BME280;4495;42.644;23.274;2024-03-08T10:08:35;93178.09;;;7.34;58.21
8920;BME280;4495;42.644;23.274;2024-03-08T10:11:01;93172.44;;;6.96;57.90
8920;BME280;4495;42.644;23.274;2024-03-08T10:13:27;93172.09;;;6.33;56.47
8920;BME280;4495;42.644;23.274;2024-03-08T10:15:53;93172.00;;;6.38;58.56
8920;BME280;4495;42.644;23.274;2024-03-08T10:18:19;93173.03;;;6.79;60.53
8920;BME280;4495;42.644;23.274;2024-03-08T10:20:44;93168.44;;;6.90;58.29
8920;BME280;4495;42.644;23.274;2024-03-08T10:23:10;93174.31;;;7.18;57.62
8920;BME280;4495;42.644;23.274;2024-03-08T10:25:36;93169.63;;;7.20;56.83
8920;BME280;4495;42.644;23.274;2024-03-08T10:28:04;93170.56;;;7.46;56.19
8920;BME280;4495;42.644;23.274;2024-03-08T10:30:30;93176.88;;;7.54;54.76
8920;BME280;4495;42.644;23.274;2024-03-08T10:32:57;93168.00;;;7.10;56.55
8920;BME280;4495;42.644;23.274;2024-03-08T10:35:24;93171.06;;;6.62;58.09
8920;BME280;4495;42.644;23.274;2024-03-08T10:37:50;93159.25;;;6.97;59.05
8920;BME280;4495;42.644;23.274;2024-03-08T10:40:27;93153.03;;;6.84;58.27
8920;BME280;4495;42.644;23.274;2024-03-08T10:42:57;93158.56;;;7.28;57.25
8920;BME280;4495;42.644;23.274;2024-03-08T10:48:31;93157.22;;;6.94;57.73
8920;BME280;4495;42.644;23.274;2024-03-08T10:51:02;93154.56;;;7.22;57.48
8920;BME280;4495;42.644;23.274;2024-03-08T10:53:28;93151.84;;;7.04;57.93
8920;BME280;4495;42.644;23.274;2024-03-08T10:55:56;93146.75;;;7.36;57.89
8920;BME280;4495;42.644;23.274;2024-03-08T10:58:23;93153.56;;;7.77;57.25
8920;BME280;4495;42.644;23.274;2024-03-08T11:00:52;93157.00;;;7.41;56.57
8920;BME280;4495;42.644;23.274;2024-03-08T11:06:07;93145.03;;;6.95;58.00
8920;BME280;4495;42.644;23.274;2024-03-08T11:08:36;93141.25;;;6.78;58.75
8920;BME280;4495;42.644;23.274;2024-03-08T11:11:01;93134.69;;;7.08;56.60
8920;BME280;4495;42.644;23.274;2024-03-08T11:13:41;93134.06;;;7.48;56.96
8920;BME280;4495;42.644;23.274;2024-03-08T11:16:36;93134.06;;;7.48;57.23
8920;BME280;4495;42.644;23.274;2024-03-08T11:19:22;93132.47;;;7.92;57.77
8920;BME280;4495;42.644;23.274;2024-03-08T11:21:57;93126.13;;;7.98;55.95
8920;BME280;4495;42.644;23.274;2024-03-08T11:24:23;93126.50;;;8.14;56.84
8920;BME280;4495;42.644;23.274;2024-03-08T11:26:49;93125.22;;;8.43;51.95
8920;BME280;4495;42.644;23.274;2024-03-08T11:32:16;93120.63;;;8.00;53.46
8920;BME280;4495;42.644;23.274;2024-03-08T11:34:47;93115.53;;;7.86;54.01
8920;BME280;4495;42.644;23.274;2024-03-08T11:37:18;93121.13;;;7.79;57.09
8920;BME280;4495;42.644;23.274;2024-03-08T11:39:50;93123.47;;;8.29;54.83
8920;BME280;4495;42.644;23.274;2024-03-08T11:42:17;93120.97;;;7.76;56.28
8920;BME280;4495;42.644;23.274;2024-03-08T11:44:44;93118.97;;;8.04;54.26
8920;BME280;4495;42.644;23.274;2024-03-08T11:47:12;93112.19;;;8.17;56.41
8920;BME280;4495;42.644;23.274;2024-03-08T11:49:39;93116.09;;;8.54;54.09
8920;BME280;4495;42.644;23.274;2024-03-08T11:52:11;93109.91;;;8.99;52.84
8920;BME280;4495;42.644;23.274;2024-03-08T11:54:38;93107.19;;;9.04;52.42
8920;BME280;4495;42.644;23.274;2024-03-08T11:57:04;93109.94;;;9.25;52.69
8920;BME280;4495;42.644;23.274;2024-03-08T11:59:30;93104.03;;;9.89;50.02
8920;BME280;4495;42.644;23.274;2024-03-08T12:02:03;93099.78;;;10.23;48.83
8920;BME280;4495;42.644;23.274;2024-03-08T12:04:29;93107.91;;;10.80;47.64
8920;BME280;4495;42.644;23.274;2024-03-08T12:06:57;93105.25;;;11.10;46.26
8920;BME280;4495;42.644;23.274;2024-03-08T12:09:24;93103.97;;;10.74;46.74
8920;BME280;4495;42.644;23.274;2024-03-08T12:11:50;93106.06;;;11.02;46.71
8920;BME280;4495;42.644;23.274;2024-03-08T12:14:16;93105.25;;;10.89;48.45
8920;BME280;4495;42.644;23.274;2024-03-08T12:16:43;93102.88;;;10.75;46.65
8920;BME280;4495;42.644;23.274;2024-03-08T12:19:11;93103.59;;;10.85;46.50
8920;BME280;4495;42.644;23.274;2024-03-08T12:21:37;93105.38;;;11.14;47.10
8920;BME280;4495;42.644;23.274;2024-03-08T12:24:10;93107.34;;;11.71;42.25
8920;BME280;4495;42.644;23.274;2024-03-08T12:26:42;93106.81;;;12.36;42.08
8920;BME280;4495;42.644;23.274;2024-03-08T12:31:43;93102.34;;;12.61;40.77
8920;BME280;4495;42.644;23.274;2024-03-08T12:34:09;93096.13;;;13.18;40.23
8920;BME280;4495;42.644;23.274;2024-03-08T12:36:35;93098.84;;;11.95;41.30
8920;BME280;4495;42.644;23.274;2024-03-08T12:39:01;93090.78;;;11.21;42.62
8920;BME280;4495;42.644;23.274;2024-03-08T12:41:29;93096.44;;;11.90;42.28
8920;BME280;4495;42.644;23.274;2024-03-08T12:43:54;93095.16;;;11.96;41.98
8920;BME280;4495;42.644;23.274;2024-03-08T12:46:21;93088.50;;;10.99;46.34
8920;BME280;4495;42.644;23.274;2024-03-08T12:48:47;93095.94;;;11.42;44.40
8920;BME280;4495;42.644;23.274;2024-03-08T12:51:13;93081.72;;;10.56;44.71
8920;BME280;4495;42.644;23.274;2024-03-08T12:53:38;93083.91;;;10.96;45.32
8920;BME280;4495;42.644;23.274;2024-03-08T12:56:06;93080.44;;;10.92;44.48
8920;BME280;4495;42.644;23.274;2024-03-08T12:58:34;93077.94;;;10.15;46.54
8920;BME280;4495;42.644;23.274;2024-03-08T13:01:02;93080.06;;;10.22;47.38
8920;BME280;4495;42.644;23.274;2024-03-08T13:03:30;93081.50;;;10.02;46.19
8920;BME280;4495;42.644;23.274;2024-03-08T13:05:56;93083.78;;;9.56;48.98
8920;BME280;4495;42.644;23.274;2024-03-08T13:08:22;93077.69;;;9.52;49.02
8920;BME280;4495;42.644;23.274;2024-03-08T13:10:50;93085.03;;;9.32;50.28
8920;BME280;4495;42.644;23.274;2024-03-08T13:13:16;93079.09;;;8.80;50.89
8920;BME280;4495;42.644;23.274;2024-03-08T13:15:42;93084.75;;;9.08;51.89
8920;BME280;4495;42.644;23.274;2024-03-08T13:18:08;93082.94;;;9.17;51.29
8920;BME280;4495;42.644;23.274;2024-03-08T13:20:34;93081.69;;;9.14;51.39
8920;BME280;4495;42.644;23.274;2024-03-08T13:23:03;93085.66;;;9.29;51.22
8920;BME280;4495;42.644;23.274;2024-03-08T13:25:30;93088.88;;;9.00;49.36
8920;BME280;4495;42.644;23.274;2024-03-08T13:27:55;93084.59;;;8.95;52.20